sensor_id;sensor_type;location;lat;lon;timestamp;pressure;altitude;pressure_sealevel;temperature;humidity
40730;BME280;26418;50.070;8.436;2023-06-22T00:02:28;100019.91;;;23.47;61.22
40730;BME280;26418;50.070;8.436;2023-06-22T00:11:40;100032.41;;;23.30;62.00
40730;BME280;26418;50.070;8.436;2023-06-22T00:17:39;100065.22;;;23.38;62.31
40730;BME280;26418;50.070;8.436;2023-06-22T00:20:30;100083.00;;;23.48;61.92
40730;BME280;26418;50.070;8.436;2023-06-22T00:22:56;100084.19;;;23.47;62.11
40730;BME280;26418;50.070;8.436;2023-06-22T00:25:23;100096.44;;;23.50;62.07
40730;BME280;26418;50.070;8.436;2023-06-22T00:27:49;100092.09;;;23.45;62.21
40730;BME280;26418;50.070;8.436;2023-06-22T00:30:18;100103.56;;;23.54;62.10
40730;BME280;26418;50.070;8.436;2023-06-22T00:36:24;100120.97;;;23.66;61.73
40730;BME280;26418;50.070;8.436;2023-06-22T00:38:50;100111.53;;;23.70;62.01
40730;BME280;26418;50.070;8.436;2023-06-22T00:41:17;100092.94;;;23.60;61.81
40730;BME280;26418;50.070;8.436;2023-06-22T00:43:51;100102.00;;;23.57;61.78
40730;BME280;26418;50.070;8.436;2023-06-22T00:46:23;100120.97;;;23.66;61.95
40730;BME280;26418;50.070;8.436;2023-06-22T00:48:55;100106.38;;;23.62;61.75
40730;BME280;26418;50.070;8.436;2023-06-22T00:51:37;100106.00;;;23.67;61.87
40730;BME280;26418;50.070;8.436;2023-06-22T00:54:22;100112.38;;;23.78;61.71
40730;BME280;26418;50.070;8.436;2023-06-22T00:56:57;100130.91;;;23.78;62.25
40730;BME280;26418;50.070;8.436;2023-06-22T00:59:23;100155.44;;;23.83;63.95
40730;BME280;26418;50.070;8.436;2023-06-22T01:02:14;100164.06;;;23.81;64.94
40730;BME280;26418;50.070;8.436;2023-06-22T01:04:40;100190.09;;;23.77;67.16
40730;BME280;26418;50.070;8.436;2023-06-22T01:10:14;100239.53;;;23.44;70.53
40730;BME280;26418;50.070;8.436;2023-06-22T01:16:03;100231.66;;;23.08;73.45
40730;BME280;26418;50.070;8.436;2023-06-22T01:18:35;100177.19;;;22.98;73.21
40730;BME280;26418;50.070;8.436;2023-06-22T01:21:06;100105.31;;;22.80;75.48
40730;BME280;26418;50.070;8.436;2023-06-22T01:30:00;100068.34;;;22.47;78.89
40730;BME280;26418;50.070;8.436;2023-06-22T01:32:40;100052.25;;;22.49;79.71
40730;BME280;26418;50.070;8.436;2023-06-22T01:35:08;100045.16;;;22.52;80.04
40730;BME280;26418;50.070;8.436;2023-06-22T01:37:40;100028.09;;;22.39;80.61
40730;BME280;26418;50.070;8.436;2023-06-22T01:40:12;100026.84;;;22.33;81.27
40730;BME280;26418;50.070;8.436;2023-06-22T01:42:39;100047.63;;;22.23;81.94
40730;BME280;26418;50.070;8.436;2023-06-22T01:45:05;100075.44;;;22.14;82.19
40730;BME280;26418;50.070;8.436;2023-06-22T01:47:41;100088.31;;;22.03;81.82
40730;BME280;26418;50.070;8.436;2023-06-22T01:50:31;100101.97;;;21.95;79.75
40730;BME280;26418;50.070;8.436;2023-06-22T01:53:03;100098.81;;;21.93;80.20
40730;BME280;26418;50.070;8.436;2023-06-22T01:55:30;100093.34;;;21.97;80.68
40730;BME280;26418;50.070;8.436;2023-06-22T01:57:55;100084.28;;;21.96;80.23
40730;BME280;26418;50.070;8.436;2023-06-22T02:00:51;100061.94;;;22.02;78.62
40730;BME280;26418;50.070;8.436;2023-06-22T02:03:34;100060.38;;;22.04;78.50
40730;BME280;26418;50.070;8.436;2023-06-22T02:06:11;100061.97;;;22.05;78.08
40730;BME280;26418;50.070;8.436;2023-06-22T02:09:02;100071.03;;;22.06;78.41
40730;BME280;26418;50.070;8.436;2023-06-22T02:11:29;100066.25;;;21.99;78.55
40730;BME280;26418;50.070;8.436;2023-06-22T02:14:08;100055.53;;;21.94;79.40
40730;BME280;26418;50.070;8.436;2023-06-22T02:16:35;100054.75;;;21.93;80.17
40730;BME280;26418;50.070;8.436;2023-06-22T02:19:03;100053.56;;;21.91;79.92
40730;BME280;26418;50.070;8.436;2023-06-22T02:21:30;100048.81;;;21.91;80.48
40730;BME280;26418;50.070;8.436;2023-06-22T02:23:56;100037.03;;;21.91;80.62
40730;BME280;26418;50.070;8.436;2023-06-22T02:26:22;100043.31;;;21.91;80.65
40730;BME280;26418;50.070;8.436;2023-06-22T02:28:55;100051.53;;;21.88;81.06
40730;BME280;26418;50.070;8.436;2023-06-22T02:31:26;100067.25;;;21.87;81.36
40730;BME280;26418;50.070;8.436;2023-06-22T02:34:01;100060.56;;;21.88;82.05
40730;BME280;26418;50.070;8.436;2023-06-22T02:36:29;100065.69;;;21.86;82.14
40730;BME280;26418;50.070;8.436;2023-06-22T02:38:58;100068.75;;;21.81;82.23
40730;BME280;26418;50.070;8.436;2023-06-22T02:41:29;100084.53;;;21.84;82.63
40730;BME280;26418;50.070;8.436;2023-06-22T02:44:01;100068.28;;;21.75;82.50
40730;BME280;26418;50.070;8.436;2023-06-22T02:49:11;100042.41;;;21.83;81.22
40730;BME280;26418;50.070;8.436;2023-06-22T02:51:42;100034.97;;;21.84;80.94
40730;BME280;26418;50.070;8.436;2023-06-22T02:54:11;100024.19;;;21.72;80.04
40730;BME280;26418;50.070;8.436;2023-06-22T02:56:36;100027.03;;;21.79;80.98
40730;BME280;26418;50.070;8.436;2023-06-22T02:59:20;100030.25;;;21.85;81.00
40730;BME280;26418;50.070;8.436;2023-06-22T03:01:58;100016.00;;;21.79;81.45
40730;BME280;26418;50.070;8.436;2023-06-22T03:04:38;100020.75;;;21.78;81.87
40730;BME280;26418;50.070;8.436;2023-06-22T03:07:04;100039.28;;;21.81;82.03
40730;BME280;26418;50.070;8.436;2023-06-22T03:09:30;100040.47;;;21.84;81.83
40730;BME280;26418;50.070;8.436;2023-06-22T03:11:56;100026.31;;;21.86;81.45
40730;BME280;26418;50.070;8.436;2023-06-22T03:14:21;100008.59;;;21.83;81.62
40730;BME280;26418;50.070;8.436;2023-06-22T03:16:53;100007.28;;;21.70;81.93
40730;BME280;26418;50.070;8.436;2023-06-22T03:19:18;100012.31;;;21.64;82.21
40730;BME280;26418;50.070;8.436;2023-06-22T03:21:45;100014.13;;;21.56;83.24
40730;BME280;26418;50.070;8.436;2023-06-22T03:24:13;100009.69;;;21.48;84.44
40730;BME280;26418;50.070;8.436;2023-06-22T03:26:54;100006.22;;;21.51;84.68
40730;BME280;26418;50.070;8.436;2023-06-22T03:29:20;100018.13;;;21.59;84.38
40730;BME280;26418;50.070;8.436;2023-06-22T03:31:45;100015.78;;;21.61;84.24
40730;BME280;26418;50.070;8.436;2023-06-22T03:34:11;100015.47;;;21.66;84.83
40730;BME280;26418;50.070;8.436;2023-06-22T03:36:37;100018.22;;;21.66;84.25
40730;BME280;26418;50.070;8.436;2023-06-22T03:39:02;100010.28;;;21.61;83.61
40730;BME280;26418;50.070;8.436;2023-06-22T03:41:28;100005.16;;;21.59;83.71
40730;BME280;26418;50.070;8.436;2023-06-22T03:43:54;99996.53;;;21.61;84.28
40730;BME280;26418;50.070;8.436;2023-06-22T03:46:19;99994.59;;;21.61;83.49
40730;BME280;26418;50.070;8.436;2023-06-22T03:48:45;100000.44;;;21.60;84.02
40730;BME280;26418;50.070;8.436;2023-06-22T03:51:11;100008.69;;;21.60;83.80
40730;BME280;26418;50.070;8.436;2023-06-22T03:53:36;99999.91;;;21.50;83.81
40730;BME280;26418;50.070;8.436;2023-06-22T03:56:02;100007.47;;;21.57;84.19
40730;BME280;26418;50.070;8.436;2023-06-22T03:58:27;100005.44;;;21.54;83.86
40730;BME280;26418;50.070;8.436;2023-06-22T04:00:58;100012.97;;;21.57;84.05
40730;BME280;26418;50.070;8.436;2023-06-22T04:03:25;100006.69;;;21.57;84.35
40730;BME280;26418;50.070;8.436;2023-06-22T04:05:50;100010.38;;;21.68;83.26
40730;BME280;26418;50.070;8.436;2023-06-22T04:08:16;100023.78;;;21.70;82.94
40730;BME280;26418;50.070;8.436;2023-06-22T04:10:42;100026.53;;;21.70;83.46
40730;BME280;26418;50.070;8.436;2023-06-22T04:13:08;100025.72;;;21.69;82.54
40730;BME280;26418;50.070;8.436;2023-06-22T04:15:34;100024.16;;;21.68;82.35
40730;BME280;26418;50.070;8.436;2023-06-22T04:17:59;100021.38;;;21.68;82.61
40730;BME280;26418;50.070;8.436;2023-06-22T04:20:25;100017.91;;;21.71;81.91
40730;BME280;26418;50.070;8.436;2023-06-22T04:22:53;100023.50;;;21.78;81.20
40730;BME280;26418;50.070;8.436;2023-06-22T04:25:19;100024.66;;;21.77;80.78
40730;BME280;26418;50.070;8.436;2023-06-22T04:27:45;100017.06;;;21.67;79.95
40730;BME280;26418;50.070;8.436;2023-06-22T04:30:11;100020.97;;;21.66;79.27
40730;BME280;26418;50.070;8.436;2023-06-22T04:32:40;100023.63;;;21.59;80.04
40730;BME280;26418;50.070;8.436;2023-06-22T04:35:06;100032.34;;;21.64;79.78
40730;BME280;26418;50.070;8.436;2023-06-22T04:37:32;100030.81;;;21.67;79.80
40730;BME280;26418;50.070;8.436;2023-06-22T04:39:58;100029.59;;;21.64;79.30
40730;BME280;26418;50.070;8.436;2023-06-22T04:42:27;100029.13;;;21.59;79.75
40730;BME280;26418;50.070;8.436;2023-06-22T04:44:53;100031.19;;;21.65;79.43
40730;BME280;26418;50.070;8.436;2023-06-22T04:47:18;100042.72;;;21.75;79.78
40730;BME280;26418;50.070;8.436;2023-06-22T04:49:44;100043.53;;;21.79;79.12
40730;BME280;26418;50.070;8.436;2023-06-22T04:52:11;100030.84;;;21.71;77.85
40730;BME280;26418;50.070;8.436;2023-06-22T04:54:38;100039.13;;;21.71;77.62
40730;BME280;26418;50.070;8.436;2023-06-22T04:57:07;100030.84;;;21.71;78.54
40730;BME280;26418;50.070;8.436;2023-06-22T04:59:37;100033.66;;;21.74;78.07
40730;BME280;26418;50.070;8.436;2023-06-22T05:02:04;100036.00;;;21.72;77.38
40730;BME280;26418;50.070;8.436;2023-06-22T05:04:30;100027.38;;;21.74;77.52
40730;BME280;26418;50.070;8.436;2023-06-22T05:06:59;100030.28;;;21.88;76.69
40730;BME280;26418;50.070;8.436;2023-06-22T05:09:25;100017.66;;;21.83;76.39
40730;BME280;26418;50.070;8.436;2023-06-22T05:11:51;100021.22;;;21.84;75.81
40730;BME280;26418;50.070;8.436;2023-06-22T05:14:17;100029.91;;;21.86;76.35
40730;BME280;26418;50.070;8.436;2023-06-22T05:16:44;100024.00;;;21.88;76.97
40730;BME280;26418;50.070;8.436;2023-06-22T05:19:10;100022.00;;;21.85;76.55
40730;BME280;26418;50.070;8.436;2023-06-22T05:21:36;100030.31;;;21.92;76.66
40730;BME280;26418;50.070;8.436;2023-06-22T05:24:02;100018.56;;;21.95;76.50
40730;BME280;26418;50.070;8.436;2023-06-22T05:26:32;100002.06;;;21.95;75.93
40730;BME280;26418;50.070;8.436;2023-06-22T05:29:00;100006.44;;;21.99;76.42
40730;BME280;26418;50.070;8.436;2023-06-22T05:31:26;100000.84;;;21.92;75.55
40730;BME280;26418;50.070;8.436;2023-06-22T05:33:53;100002.06;;;21.95;76.08
40730;BME280;26418;50.070;8.436;2023-06-22T05:36:20;99994.53;;;21.92;76.07
40730;BME280;26418;50.070;8.436;2023-06-22T05:38:46;100007.25;;;22.04;75.70
40730;BME280;26418;50.070;8.436;2023-06-22T05:41:12;100007.31;;;22.07;75.54
40730;BME280;26418;50.070;8.436;2023-06-22T05:43:38;100001.41;;;22.09;75.14
40730;BME280;26418;50.070;8.436;2023-06-22T05:46:04;99993.91;;;22.06;75.09
40730;BME280;26418;50.070;8.436;2023-06-22T05:48:30;99999.16;;;22.18;74.87
40730;BME280;26418;50.070;8.436;2023-06-22T05:50:55;99999.97;;;22.22;74.28
40730;BME280;26418;50.070;8.436;2023-06-22T05:53:21;100006.34;;;22.26;74.53
40730;BME280;26418;50.070;8.436;2023-06-22T05:55:47;99998.56;;;22.36;74.88
40730;BME280;26418;50.070;8.436;2023-06-22T05:58:13;99992.31;;;22.42;74.43
40730;BME280;26418;50.070;8.436;2023-06-22T06:00:39;100006.22;;;22.53;74.06
40730;BME280;26418;50.070;8.436;2023-06-22T06:03:06;100014.59;;;22.64;74.14
40730;BME280;26418;50.070;8.436;2023-06-22T06:05:33;100004.03;;;22.73;74.24
40730;BME280;26418;50.070;8.436;2023-06-22T06:08:00;99999.31;;;22.77;73.35
40730;BME280;26418;50.070;8.436;2023-06-22T06:10:25;99996.66;;;22.88;73.23
40730;BME280;26418;50.070;8.436;2023-06-22T06:12:52;99984.47;;;22.93;72.93
40730;BME280;26418;50.070;8.436;2023-06-22T06:15:17;99993.63;;;23.08;72.90
40730;BME280;26418;50.070;8.436;2023-06-22T06:17:51;99992.94;;;23.18;72.57
40730;BME280;26418;50.070;8.436;2023-06-22T06:20:19;99979.59;;;23.28;72.16
40730;BME280;26418;50.070;8.436;2023-06-22T06:22:45;99988.69;;;23.35;71.49
40730;BME280;26418;50.070;8.436;2023-06-22T06:25:12;99987.13;;;23.38;71.17
40730;BME280;26418;50.070;8.436;2023-06-22T06:27:42;99994.72;;;23.55;70.69
40730;BME280;26418;50.070;8.436;2023-06-22T06:30:10;99982.91;;;23.62;70.70
40730;BME280;26418;50.070;8.436;2023-06-22T06:32:35;99986.13;;;23.79;70.01
40730;BME280;26418;50.070;8.436;2023-06-22T06:35:01;99982.63;;;23.85;69.23
40730;BME280;26418;50.070;8.436;2023-06-22T06:37:27;99990.56;;;23.98;68.97
40730;BME280;26418;50.070;8.436;2023-06-22T06:39:53;99989.38;;;24.02;69.00
40730;BME280;26418;50.070;8.436;2023-06-22T06:42:18;99981.91;;;24.03;68.72
40730;BME280;26418;50.070;8.436;2023-06-22T06:44:45;99976.38;;;24.03;69.07
40730;BME280;26418;50.070;8.436;2023-06-22T06:47:10;99967.28;;;23.95;68.81
40730;BME280;26418;50.070;8.436;2023-06-22T06:49:36;99972.44;;;24.00;69.38
40730;BME280;26418;50.070;8.436;2023-06-22T06:52:02;99964.94;;;24.08;68.97
40730;BME280;26418;50.070;8.436;2023-06-22T06:54:27;99957.41;;;24.01;68.83
40730;BME280;26418;50.070;8.436;2023-06-22T06:56:53;99967.34;;;24.17;68.27
40730;BME280;26418;50.070;8.436;2023-06-22T06:59:18;99965.75;;;24.20;67.81
40730;BME280;26418;50.070;8.436;2023-06-22T07:01:44;99977.19;;;24.18;68.13
40730;BME280;26418;50.070;8.436;2023-06-22T07:04:10;99962.19;;;24.12;68.56
40730;BME280;26418;50.070;8.436;2023-06-22T07:06:35;99969.69;;;24.26;68.25
40730;BME280;26418;50.070;8.436;2023-06-22T07:09:01;99966.94;;;24.33;67.43
40730;BME280;26418;50.070;8.436;2023-06-22T07:11:27;99961.41;;;24.33;67.99
40730;BME280;26418;50.070;8.436;2023-06-22T07:13:53;99967.34;;;24.42;68.17
40730;BME280;26418;50.070;8.436;2023-06-22T07:16:18;99965.38;;;24.50;67.28
40730;BME280;26418;50.070;8.436;2023-06-22T07:18:44;99961.44;;;24.58;66.82
40730;BME280;26418;50.070;8.436;2023-06-22T07:21:09;99946.03;;;24.61;67.01
40730;BME280;26418;50.070;8.436;2023-06-22T07:23:35;99956.69;;;24.73;66.23
40730;BME280;26418;50.070;8.436;2023-06-22T07:26:00;99966.59;;;24.89;65.57
40730;BME280;26418;50.070;8.436;2023-06-22T07:28:31;99957.09;;;24.97;65.30
40730;BME280;26418;50.070;8.436;2023-06-22T07:31:02;99949.13;;;25.06;65.09
40730;BME280;26418;50.070;8.436;2023-06-22T07:33:28;99957.41;;;25.21;64.39
40730;BME280;26418;50.070;8.436;2023-06-22T07:35:54;99948.66;;;25.37;64.03
40730;BME280;26418;50.070;8.436;2023-06-22T07:38:19;99947.84;;;25.47;63.25
40730;BME280;26418;50.070;8.436;2023-06-22T07:40:45;99941.06;;;25.63;62.57
40730;BME280;26418;50.070;8.436;2023-06-22T07:43:10;99942.97;;;25.77;62.06
40730;BME280;26418;50.070;8.436;2023-06-22T07:45:37;99937.00;;;25.78;61.84
40730;BME280;26418;50.070;8.436;2023-06-22T07:48:05;99931.00;;;25.94;61.35
40730;BME280;26418;50.070;8.436;2023-06-22T07:50:30;99912.34;;;25.98;60.13
40730;BME280;26418;50.070;8.436;2023-06-22T07:52:56;99926.97;;;26.10;60.66
40730;BME280;26418;50.070;8.436;2023-06-22T07:55:22;99928.06;;;26.23;59.89
40730;BME280;26418;50.070;8.436;2023-06-22T07:57:49;99926.63;;;26.53;59.88
40730;BME280;26418;50.070;8.436;2023-06-22T08:00:14;99918.38;;;26.88;58.99
40730;BME280;26418;50.070;8.436;2023-06-22T08:02:42;99925.34;;;27.07;56.54
40730;BME280;26418;50.070;8.436;2023-06-22T08:05:09;99919.22;;;27.19;56.64
40730;BME280;26418;50.070;8.436;2023-06-22T08:07:35;99923.72;;;27.40;56.06
40730;BME280;26418;50.070;8.436;2023-06-22T08:10:03;99916.03;;;27.55;55.64
40730;BME280;26418;50.070;8.436;2023-06-22T08:12:29;99921.34;;;27.73;54.58
40730;BME280;26418;50.070;8.436;2023-06-22T08:14:55;99914.06;;;27.83;54.83
40730;BME280;26418;50.070;8.436;2023-06-22T08:17:23;99911.59;;;27.89;54.59
40730;BME280;26418;50.070;8.436;2023-06-22T08:19:49;99911.75;;;28.05;54.27
40730;BME280;26418;50.070;8.436;2023-06-22T08:22:16;99914.81;;;28.15;54.40
40730;BME280;26418;50.070;8.436;2023-06-22T08:24:52;99902.34;;;28.23;54.42
40730;BME280;26418;50.070;8.436;2023-06-22T08:27:18;99910.25;;;28.28;53.55
40730;BME280;26418;50.070;8.436;2023-06-22T08:29:46;99894.38;;;28.25;53.66
40730;BME280;26418;50.070;8.436;2023-06-22T08:32:12;99902.97;;;28.34;53.50
40730;BME280;26418;50.070;8.436;2023-06-22T08:34:37;99889.50;;;28.33;53.64
40730;BME280;26418;50.070;8.436;2023-06-22T08:37:08;99889.25;;;28.47;53.33
40730;BME280;26418;50.070;8.436;2023-06-22T08:39:33;99888.81;;;28.25;54.10
40730;BME280;26418;50.070;8.436;2023-06-22T08:41:59;99889.25;;;28.23;54.39
40730;BME280;26418;50.070;8.436;2023-06-22T08:44:25;99900.84;;;28.42;54.05
40730;BME280;26418;50.070;8.436;2023-06-22T08:46:51;99888.84;;;28.69;53.56
40730;BME280;26418;50.070;8.436;2023-06-22T08:49:16;99885.84;;;29.04;52.55
40730;BME280;26418;50.070;8.436;2023-06-22T08:51:42;99873.03;;;29.26;52.06
40730;BME280;26418;50.070;8.436;2023-06-22T08:54:09;99859.63;;;29.41;51.10
40730;BME280;26418;50.070;8.436;2023-06-22T08:56:35;99869.72;;;29.52;51.09
40730;BME280;26418;50.070;8.436;2023-06-22T08:59:01;99870.78;;;29.58;50.56
40730;BME280;26418;50.070;8.436;2023-06-22T09:01:27;99867.03;;;29.64;50.38
40730;BME280;26418;50.070;8.436;2023-06-22T09:03:52;99872.81;;;29.74;50.48
40730;BME280;26418;50.070;8.436;2023-06-22T09:06:23;99870.28;;;29.79;49.38
40730;BME280;26418;50.070;8.436;2023-06-22T09:08:49;99880.22;;;29.80;49.81
40730;BME280;26418;50.070;8.436;2023-06-22T09:11:15;99873.69;;;29.87;49.76
40730;BME280;26418;50.070;8.436;2023-06-22T09:13:41;99876.63;;;30.00;49.41
40730;BME280;26418;50.070;8.436;2023-06-22T09:16:07;99867.50;;;30.29;48.72
40730;BME280;26418;50.070;8.436;2023-06-22T09:18:34;99862.28;;;30.31;48.09
40730;BME280;26418;50.070;8.436;2023-06-22T09:20:59;99858.44;;;30.41;48.89
40730;BME280;26418;50.070;8.436;2023-06-22T09:23:25;99847.94;;;30.62;47.93
40730;BME280;26418;50.070;8.436;2023-06-22T09:25:50;99841.00;;;30.96;47.72
40730;BME280;26418;50.070;8.436;2023-06-22T09:28:16;99853.03;;;31.35;46.06
40730;BME280;26418;50.070;8.436;2023-06-22T09:30:45;99842.44;;;31.56;45.55
40730;BME280;26418;50.070;8.436;2023-06-22T09:33:10;99839.41;;;31.50;46.02
40730;BME280;26418;50.070;8.436;2023-06-22T09:35:36;99841.97;;;31.45;46.05
40730;BME280;26418;50.070;8.436;2023-06-22T09:38:01;99836.72;;;31.34;45.96
40730;BME280;26418;50.070;8.436;2023-06-22T09:40:27;99829.34;;;31.14;45.85
40730;BME280;26418;50.070;8.436;2023-06-22T09:42:53;99824.53;;;31.15;46.73
40730;BME280;26418;50.070;8.436;2023-06-22T09:45:18;99825.19;;;31.19;47.10
40730;BME280;26418;50.070;8.436;2023-06-22T09:47:44;99816.16;;;31.41;46.60
40730;BME280;26418;50.070;8.436;2023-06-22T09:50:09;99821.09;;;31.75;44.84
40730;BME280;26418;50.070;8.436;2023-06-22T09:52:35;99818.28;;;31.75;44.42
40730;BME280;26418;50.070;8.436;2023-06-22T09:55:00;99818.63;;;31.51;45.23
40730;BME280;26418;50.070;8.436;2023-06-22T09:57:28;99804.88;;;31.31;45.13
40730;BME280;26418;50.070;8.436;2023-06-22T09:59:54;99814.59;;;31.27;45.70
40730;BME280;26418;50.070;8.436;2023-06-22T10:02:20;99814.84;;;31.32;45.95
40730;BME280;26418;50.070;8.436;2023-06-22T10:04:45;99812.25;;;31.51;45.44
40730;BME280;26418;50.070;8.436;2023-06-22T10:07:11;99804.31;;;31.75;45.01
40730;BME280;26418;50.070;8.436;2023-06-22T10:09:37;99803.09;;;31.76;45.01
40730;BME280;26418;50.070;8.436;2023-06-22T10:12:02;99802.53;;;31.81;44.91
40730;BME280;26418;50.070;8.436;2023-06-22T10:14:28;99784.28;;;31.90;44.62
40730;BME280;26418;50.070;8.436;2023-06-22T10:16:55;99784.47;;;31.95;44.43
40730;BME280;26418;50.070;8.436;2023-06-22T10:19:20;99785.47;;;32.02;44.11
40730;BME280;26418;50.070;8.436;2023-06-22T10:21:46;99768.94;;;32.17;43.65
40730;BME280;26418;50.070;8.436;2023-06-22T10:24:11;99772.53;;;32.17;42.98
40730;BME280;26418;50.070;8.436;2023-06-22T10:26:37;99766.41;;;32.44;42.76
40730;BME280;26418;50.070;8.436;2023-06-22T10:29:03;99758.94;;;32.73;41.95
40730;BME280;26418;50.070;8.436;2023-06-22T10:31:28;99749.19;;;33.09;41.31
40730;BME280;26418;50.070;8.436;2023-06-22T10:33:55;99746.81;;;33.39;40.04
40730;BME280;26418;50.070;8.436;2023-06-22T10:36:23;99740.81;;;33.68;39.76
40730;BME280;26418;50.070;8.436;2023-06-22T10:38:49;99742.88;;;34.05;39.21
40730;BME280;26418;50.070;8.436;2023-06-22T10:41:15;99722.47;;;34.14;37.93
40730;BME280;26418;50.070;8.436;2023-06-22T10:43:41;99713.75;;;34.03;38.88
40730;BME280;26418;50.070;8.436;2023-06-22T10:46:07;99713.88;;;34.36;36.25
40730;BME280;26418;50.070;8.436;2023-06-22T10:48:33;99698.16;;;34.82;35.46
40730;BME280;26418;50.070;8.436;2023-06-22T10:50:58;99694.94;;;35.07;35.41
40730;BME280;26418;50.070;8.436;2023-06-22T10:53:24;99691.28;;;35.50;35.06
40730;BME280;26418;50.070;8.436;2023-06-22T10:55:50;99686.63;;;35.47;34.26
40730;BME280;26418;50.070;8.436;2023-06-22T10:58:18;99677.63;;;35.57;34.54
40730;BME280;26418;50.070;8.436;2023-06-22T11:00:44;99664.81;;;35.32;35.26
40730;BME280;26418;50.070;8.436;2023-06-22T11:03:09;99665.00;;;35.29;34.48
40730;BME280;26418;50.070;8.436;2023-06-22T11:05:35;99663.75;;;35.54;34.00
40730;BME280;26418;50.070;8.436;2023-06-22T11:08:00;99660.03;;;35.87;34.02
40730;BME280;26418;50.070;8.436;2023-06-22T11:10:26;99663.38;;;36.00;33.14
40730;BME280;26418;50.070;8.436;2023-06-22T11:12:52;99661.16;;;36.04;33.73
40730;BME280;26418;50.070;8.436;2023-06-22T11:15:18;99668.72;;;36.13;33.67
40730;BME280;26418;50.070;8.436;2023-06-22T11:17:44;99667.38;;;36.09;33.55
40730;BME280;26418;50.070;8.436;2023-06-22T11:20:10;99649.50;;;35.97;33.44
40730;BME280;26418;50.070;8.436;2023-06-22T11:22:37;99645.53;;;36.03;33.04
40730;BME280;26418;50.070;8.436;2023-06-22T11:25:05;99653.59;;;36.11;33.62
40730;BME280;26418;50.070;8.436;2023-06-22T11:27:30;99644.56;;;36.37;33.37
40730;BME280;26418;50.070;8.436;2023-06-22T11:29:56;99647.63;;;36.69;32.77
40730;BME280;26418;50.070;8.436;2023-06-22T11:32:22;99637.63;;;37.03;31.76
40730;BME280;26418;50.070;8.436;2023-06-22T11:34:48;99633.41;;;37.13;31.28
40730;BME280;26418;50.070;8.436;2023-06-22T11:37:13;99643.47;;;37.00;31.26
40730;BME280;26418;50.070;8.436;2023-06-22T11:39:39;99638.34;;;36.62;32.26
40730;BME280;26418;50.070;8.436;2023-06-22T11:42:04;99639.81;;;36.13;32.26
40730;BME280;26418;50.070;8.436;2023-06-22T11:44:30;99633.75;;;35.90;33.09
40730;BME280;26418;50.070;8.436;2023-06-22T11:46:56;99638.44;;;35.93;33.47
40730;BME280;26418;50.070;8.436;2023-06-22T11:49:21;99648.56;;;35.76;33.87
40730;BME280;26418;50.070;8.436;2023-06-22T11:51:47;99638.72;;;35.56;34.47
40730;BME280;26418;50.070;8.436;2023-06-22T11:54:12;99637.19;;;35.55;34.62
40730;BME280;26418;50.070;8.436;2023-06-22T11:56:38;99629.44;;;35.65;34.21
40730;BME280;26418;50.070;8.436;2023-06-22T11:59:03;99617.69;;;36.06;33.86
40730;BME280;26418;50.070;8.436;2023-06-22T12:01:29;99616.66;;;36.69;33.27
40730;BME280;26418;50.070;8.436;2023-06-22T12:03:54;99612.69;;;36.96;32.23
40730;BME280;26418;50.070;8.436;2023-06-22T12:06:20;99616.91;;;37.68;32.05
40730;BME280;26418;50.070;8.436;2023-06-22T12:08:45;99609.75;;;38.26;30.64
40730;BME280;26418;50.070;8.436;2023-06-22T12:11:11;99604.59;;;38.94;29.83
40730;BME280;26418;50.070;8.436;2023-06-22T12:13:36;99607.09;;;39.41;29.14
40730;BME280;26418;50.070;8.436;2023-06-22T12:16:02;99591.78;;;39.76;28.35
40730;BME280;26418;50.070;8.436;2023-06-22T12:18:27;99606.97;;;39.90;28.33
40730;BME280;26418;50.070;8.436;2023-06-22T12:20:53;99601.00;;;39.65;28.19
40730;BME280;26418;50.070;8.436;2023-06-22T12:23:18;99601.03;;;39.71;28.07
40730;BME280;26418;50.070;8.436;2023-06-22T12:25:45;99600.22;;;39.65;28.28
40730;BME280;26418;50.070;8.436;2023-06-22T12:28:11;99598.78;;;40.15;27.91
40730;BME280;26418;50.070;8.436;2023-06-22T12:30:36;99599.16;;;40.87;27.50
40730;BME280;26418;50.070;8.436;2023-06-22T12:33:02;99601.94;;;41.10;26.63
40730;BME280;26418;50.070;8.436;2023-06-22T12:35:27;99594.56;;;40.78;26.38
40730;BME280;26418;50.070;8.436;2023-06-22T12:37:53;99598.19;;;40.73;26.93
40730;BME280;26418;50.070;8.436;2023-06-22T12:40:18;99590.22;;;40.60;27.19
40730;BME280;26418;50.070;8.436;2023-06-22T12:42:47;99595.13;;;40.48;27.57
40730;BME280;26418;50.070;8.436;2023-06-22T12:45:13;99579.44;;;40.30;27.34
40730;BME280;26418;50.070;8.436;2023-06-22T12:47:38;99584.31;;;39.90;28.04
40730;BME280;26418;50.070;8.436;2023-06-22T12:50:04;99588.44;;;39.83;28.65
40730;BME280;26418;50.070;8.436;2023-06-22T12:52:30;99577.03;;;39.55;28.96
40730;BME280;26418;50.070;8.436;2023-06-22T12:54:57;99582.84;;;39.23;29.33
40730;BME280;26418;50.070;8.436;2023-06-22T12:57:23;99584.63;;;39.14;29.60
40730;BME280;26418;50.070;8.436;2023-06-22T12:59:49;99577.66;;;39.04;28.98
40730;BME280;26418;50.070;8.436;2023-06-22T13:02:14;99579.09;;;38.88;29.57
40730;BME280;26418;50.070;8.436;2023-06-22T13:04:40;99567.19;;;38.73;29.75
40730;BME280;26418;50.070;8.436;2023-06-22T13:07:06;99575.69;;;38.35;30.06
40730;BME280;26418;50.070;8.436;2023-06-22T13:09:31;99571.44;;;37.87;30.69
40730;BME280;26418;50.070;8.436;2023-06-22T13:11:57;99564.41;;;37.77;31.72
40730;BME280;26418;50.070;8.436;2023-06-22T13:14:23;99558.13;;;37.67;31.70
40730;BME280;26418;50.070;8.436;2023-06-22T13:16:49;99557.91;;;37.44;31.66
40730;BME280;26418;50.070;8.436;2023-06-22T13:19:15;99557.75;;;37.33;32.08
40730;BME280;26418;50.070;8.436;2023-06-22T13:21:41;99549.66;;;37.20;32.91
40730;BME280;26418;50.070;8.436;2023-06-22T13:24:06;99544.94;;;37.32;32.85
40730;BME280;26418;50.070;8.436;2023-06-22T13:26:32;99546.22;;;37.31;33.04